Time;durP1;ratioP1;P1;durP2;ratioP2;P2;SDS_P1;SDS_P2;PMS_P1;PMS_P2;Temp;Humidity;BMP_temperature;BMP_pressure;BME280_temperature;BME280_humidity;BME280_pressure;Samples;Min_cycle;Max_cycle;Signal;HPM_P1;HPM_P2
2023/04/05 00:00:00;;;;;;;48.63;17.70;;;-0.20;99.90;;;;;;4921147;29;20366;-77
2023/04/05 00:02:28;;;;;;;46.60;18.30;;;-0.20;99.90;;;;;;4938369;29;20233;-78
2023/04/05 00:04:56;;;;;;;39.67;18.03;;;-0.30;99.90;;;;;;4938716;29;20245;-84
2023/04/05 00:07:25;;;;;;;44.27;17.53;;;-0.30;99.90;;;;;;4936956;29;20213;-82
2023/04/05 00:09:52;;;;;;;42.80;18.47;;;-0.30;99.90;;;;;;4938063;29;20194;-78
2023/04/05 00:12:19;;;;;;;46.17;18.93;;;-0.30;99.90;;;;;;4938045;29;20224;-79
2023/04/05 00:14:47;;;;;;;41.50;17.70;;;-0.30;99.90;;;;;;4920877;29;20217;-82
2023/04/05 00:17:14;;;;;;;42.50;18.43;;;-0.30;99.90;;;;;;4921086;29;20205;-84
2023/04/05 00:19:42;;;;;;;41.80;17.40;;;-0.30;99.90;;;;;;4937037;29;20811;-82
2023/04/05 00:22:09;;;;;;;39.80;17.10;;;-0.40;99.90;;;;;;4905245;29;20272;-79
2023/04/05 00:24:42;;;;;;;39.17;16.77;;;-0.50;99.90;;;;;;4937800;29;20201;-80
2023/04/05 00:27:09;;;;;;;41.40;17.83;;;-0.40;99.90;;;;;;4920755;29;20822;-78
2023/04/05 00:29:36;;;;;;;39.67;16.90;;;-0.40;99.90;;;;;;4937746;29;20208;-83
2023/04/05 00:32:03;;;;;;;41.23;17.40;;;-0.40;99.90;;;;;;4920718;29;20294;-84
2023/04/05 00:34:32;;;;;;;42.70;17.10;;;-0.40;99.90;;;;;;4936207;29;20202;-80
2023/04/05 00:36:59;;;;;;;37.30;16.70;;;-0.20;99.90;;;;;;4920541;29;20212;-83
2023/04/05 00:39:26;;;;;;;35.90;17.17;;;-0.30;99.90;;;;;;4937847;29;20213;-83
2023/04/05 00:41:53;;;;;;;37.97;16.93;;;-0.30;99.90;;;;;;4920457;29;20689;-83
2023/04/05 00:44:20;;;;;;;43.63;17.80;;;-0.30;99.90;;;;;;4920754;29;20224;-82
2023/04/05 00:46:47;;;;;;;40.37;17.43;;;-0.30;99.90;;;;;;4940971;29;20663;-82
2023/04/05 00:49:14;;;;;;;31.67;14.07;;;-0.30;99.90;;;;;;4937470;29;20198;-82
2023/04/05 00:51:41;;;;;;;30.47;12.90;;;-0.40;99.90;;;;;;4922580;29;20247;-81
2023/04/05 00:54:08;;;;;;;27.73;11.73;;;-0.30;99.90;;;;;;4918706;29;20207;-81
2023/04/05 00:56:35;;;;;;;37.37;13.97;;;-0.30;99.90;;;;;;4916998;29;20206;-80
2023/04/05 00:59:02;;;;;;;29.67;12.80;;;-0.20;99.90;;;;;;4933060;29;20213;-80
2023/04/05 01:01:36;;;;;;;27.63;12.30;;;-0.20;99.90;;;;;;4942532;29;20588;-80
2023/04/05 01:04:05;;;;;;;25.80;10.97;;;-0.20;99.90;;;;;;4957016;29;20197;-79
2023/04/05 01:06:52;;;;;;;26.43;11.13;;;-0.10;99.90;;;;;;4939167;29;20216;-80
2023/04/05 01:09:37;;;;;;;26.50;10.70;;;-0.10;99.90;;;;;;4939327;29;20209;-80
2023/04/05 01:12:08;;;;;;;21.37;10.27;;;0.10;99.90;;;;;;4955050;29;20238;-81
2023/04/05 01:14:46;;;;;;;19.47;8.17;;;0.10;99.90;;;;;;4955949;29;20216;-81
2023/04/05 01:17:15;;;;;;;17.57;7.70;;;0.10;99.90;;;;;;4938763;29;20650;-81
2023/04/05 01:19:46;;;;;;;18.53;7.70;;;0.10;99.90;;;;;;4956124;29;20308;-80
2023/04/05 01:22:36;;;;;;;18.23;7.63;;;0.00;99.90;;;;;;4917532;29;20235;-80
2023/04/05 01:25:35;;;;;;;15.97;7.00;;;0.00;99.90;;;;;;4900507;29;20195;-79
2023/04/05 01:28:14;;;;;;;15.60;6.53;;;0.00;99.90;;;;;;4917752;29;20198;-81
2023/04/05 01:30:45;;;;;;;14.30;6.20;;;0.00;99.90;;;;;;4916611;29;20203;-77
2023/04/05 01:33:18;;;;;;;12.70;6.03;;;0.00;99.90;;;;;;4917712;29;20770;-77
2023/04/05 01:35:54;;;;;;;10.27;5.73;;;0.00;99.90;;;;;;4900789;29;20727;-78
2023/04/05 01:38:27;;;;;;;12.83;6.07;;;-0.10;99.90;;;;;;4900594;29;20648;-78
2023/04/05 01:40:54;;;;;;;15.17;6.50;;;-0.10;99.90;;;;;;4916713;29;20240;-79
2023/04/05 01:43:21;;;;;;;16.33;6.07;;;-0.20;99.90;;;;;;4953844;28;20213;-78
2023/04/05 01:45:48;;;;;;;14.60;6.63;;;-0.20;99.90;;;;;;4957923;29;20273;-77
2023/04/05 01:48:15;;;;;;;12.07;5.87;;;-0.10;99.90;;;;;;4955296;29;20563;-78
2023/04/05 01:50:42;;;;;;;14.20;6.60;;;0.00;99.90;;;;;;4938264;29;20540;-77
2023/04/05 01:53:10;;;;;;;11.97;5.97;;;0.10;99.90;;;;;;4955392;29;20285;-78
2023/04/05 01:55:52;;;;;;;13.50;6.20;;;0.00;99.90;;;;;;4955328;29;20199;-79
2023/04/05 02:00:56;;;;;;;14.00;6.23;;;0.20;99.90;;;;;;4861722;29;20251;-79
2023/04/05 02:03:23;;;;;;;16.57;6.20;;;0.10;99.90;;;;;;4878058;29;20224;-81
2023/04/05 02:05:51;;;;;;;13.93;6.33;;;0.10;99.90;;;;;;4862709;29;20268;-82
2023/04/05 02:08:18;;;;;;;12.07;5.83;;;0.20;99.90;;;;;;4879706;29;20617;-82
2023/04/05 02:11:26;;;;;;;13.43;5.97;;;0.20;99.90;;;;;;4879686;29;20279;-79
2023/04/05 02:13:53;;;;;;;12.37;6.00;;;0.20;99.90;;;;;;4866373;29;20214;-76
2023/04/05 02:16:20;;;;;;;12.13;6.27;;;0.30;99.90;;;;;;4879399;29;20196;-81
2023/04/05 02:18:49;;;;;;;12.73;6.53;;;0.10;99.90;;;;;;4877982;29;20212;-76
2023/04/05 02:21:17;;;;;;;11.53;6.47;;;0.10;99.90;;;;;;4911286;29;20274;-81
2023/04/05 02:23:44;;;;;;;13.40;6.23;;;0.10;99.90;;;;;;4899451;29;20212;-76
2023/04/05 02:26:11;;;;;;;14.00;5.90;;;0.10;99.90;;;;;;4896311;29;20666;-77
2023/04/05 02:28:38;;;;;;;14.07;6.83;;;0.10;99.90;;;;;;4898178;29;20201;-76
2023/04/05 02:31:12;;;;;;;11.90;6.27;;;0.20;99.90;;;;;;4897490;29;20204;-77
2023/04/05 02:33:40;;;;;;;12.00;6.30;;;0.20;99.90;;;;;;4899117;29;20210;-78
2023/04/05 02:36:10;;;;;;;14.37;6.30;;;0.30;99.90;;;;;;4899670;29;20199;-78
2023/04/05 02:38:37;;;;;;;14.70;6.40;;;0.30;99.90;;;;;;4897963;29;20286;-78
2023/04/05 02:41:07;;;;;;;14.17;6.27;;;0.30;99.90;;;;;;4898847;29;20195;-78
2023/04/05 02:43:34;;;;;;;12.10;6.30;;;0.20;99.90;;;;;;4883051;29;20229;-78
2023/04/05 02:46:02;;;;;;;13.03;6.63;;;0.20;99.90;;;;;;4899074;29;20192;-77
2023/04/05 02:48:30;;;;;;;12.33;6.43;;;0.10;99.90;;;;;;4896298;29;20200;-79
2023/04/05 02:50:57;;;;;;;14.20;6.40;;;0.00;99.90;;;;;;4896075;29;20197;-78
2023/04/05 02:53:24;;;;;;;11.53;5.87;;;-0.10;99.90;;;;;;4895376;29;20264;-80
2023/04/05 02:55:55;;;;;;;14.30;6.70;;;-0.10;99.90;;;;;;4896006;29;20220;-80
2023/04/05 02:58:24;;;;;;;12.27;6.30;;;-0.20;99.90;;;;;;4896277;29;20212;-84
2023/04/05 03:00:53;;;;;;;14.00;6.63;;;-0.10;99.90;;;;;;4916455;29;20593;-78
2023/04/05 03:03:21;;;;;;;15.17;7.30;;;-0.10;99.90;;;;;;4915461;29;20311;-83
2023/04/05 03:05:55;;;;;;;12.53;6.50;;;-0.10;99.90;;;;;;4917844;29;20200;-76
2023/04/05 03:08:23;;;;;;;13.50;6.90;;;-0.10;99.90;;;;;;4918361;29;20220;-82
2023/04/05 03:10:50;;;;;;;14.97;6.70;;;-0.20;99.90;;;;;;4935081;29;20198;-81
2023/04/05 03:13:18;;;;;;;15.83;6.50;;;-0.20;99.90;;;;;;4918533;29;20217;-77
2023/04/05 03:15:45;;;;;;;14.47;6.97;;;-0.30;99.90;;;;;;4918041;29;20217;-78
2023/04/05 03:18:12;;;;;;;16.10;6.93;;;-0.20;99.90;;;;;;4918109;29;20277;-77
2023/04/05 03:20:39;;;;;;;13.70;6.70;;;-0.20;99.90;;;;;;4917747;29;20232;-79
2023/04/05 03:23:07;;;;;;;16.97;7.23;;;-0.20;99.90;;;;;;4934767;29;20238;-81
2023/04/05 03:25:39;;;;;;;15.17;7.63;;;-0.20;99.90;;;;;;4934782;29;20575;-79
2023/04/05 03:28:07;;;;;;;20.23;8.10;;;-0.20;99.90;;;;;;4935108;29;20205;-78
2023/04/05 03:30:34;;;;;;;23.40;9.53;;;-0.10;99.90;;;;;;4918022;29;20214;-80
2023/04/05 03:33:02;;;;;;;25.87;11.10;;;-0.20;99.90;;;;;;4934853;29;20198;-79
2023/04/05 03:35:30;;;;;;;27.60;11.87;;;-0.20;99.90;;;;;;4935202;29;20540;-82
2023/04/05 03:37:57;;;;;;;26.67;12.57;;;-0.20;99.90;;;;;;4917846;29;20594;-81
2023/04/05 03:40:24;;;;;;;31.80;14.20;;;-0.30;99.90;;;;;;4917857;29;20329;-80
2023/04/05 03:42:52;;;;;;;34.00;13.83;;;-0.30;99.90;;;;;;4935029;29;20218;-80
2023/04/05 03:45:19;;;;;;;32.03;14.30;;;-0.50;99.90;;;;;;4902153;29;20194;-81
2023/04/05 03:47:50;;;;;;;34.33;15.33;;;-0.50;99.90;;;;;;4902580;29;20574;-81
2023/04/05 03:50:17;;;;;;;37.67;15.87;;;-0.60;99.90;;;;;;4922126;29;20214;-78
2023/04/05 03:52:45;;;;;;;39.87;15.87;;;-0.70;99.90;;;;;;4918089;29;20659;-82
2023/04/05 03:55:12;;;;;;;45.07;17.73;;;-0.70;99.90;;;;;;4917909;29;20234;-81
2023/04/05 03:57:40;;;;;;;48.07;18.57;;;-0.70;99.90;;;;;;4936362;29;20199;-77
2023/04/05 04:00:16;;;;;;;39.87;17.43;;;-0.70;99.90;;;;;;4917622;29;20260;-80
2023/04/05 04:02:44;;;;;;;42.67;18.87;;;-0.60;99.90;;;;;;4917708;29;20216;-82
2023/04/05 04:05:13;;;;;;;41.93;18.73;;;-0.70;99.90;;;;;;4918862;29;20208;-81
2023/04/05 04:07:41;;;;;;;43.33;18.07;;;-0.60;99.90;;;;;;4938233;29;20291;-81
2023/04/05 04:10:14;;;;;;;42.73;19.37;;;-0.70;99.90;;;;;;4921150;29;20198;-79
2023/04/05 04:12:41;;;;;;;42.80;17.60;;;-0.60;99.90;;;;;;4938083;29;20675;-77
2023/04/05 04:15:09;;;;;;;41.23;18.07;;;-0.60;99.90;;;;;;4938131;29;20253;-78
2023/04/05 04:17:36;;;;;;;33.93;17.00;;;-0.70;99.90;;;;;;4937997;29;20217;-80
2023/04/05 04:20:09;;;;;;;40.10;17.87;;;-0.80;99.90;;;;;;4937895;29;20586;-78
2023/04/05 04:22:39;;;;;;;38.73;18.27;;;-0.80;99.90;;;;;;4921144;29;20224;-78
2023/04/05 04:25:11;;;;;;;42.53;18.17;;;-0.90;99.90;;;;;;4937806;29;20195;-77
2023/04/05 04:27:41;;;;;;;44.70;19.30;;;-0.90;99.90;;;;;;4920756;29;20202;-80
2023/04/05 04:30:11;;;;;;;42.97;18.73;;;-0.80;99.90;;;;;;4920654;29;20207;-81
2023/04/05 04:32:52;;;;;;;44.63;18.67;;;-0.70;99.90;;;;;;4937982;29;20541;-78
2023/04/05 04:35:25;;;;;;;40.97;18.70;;;-0.60;99.90;;;;;;4905068;29;20210;-79
2023/04/05 04:38:03;;;;;;;49.63;19.10;;;-0.50;99.90;;;;;;4920685;29;20214;-78
2023/04/05 04:40:38;;;;;;;51.37;20.17;;;-0.40;99.90;;;;;;4937451;29;20512;-82
2023/04/05 04:43:08;;;;;;;40.07;19.03;;;-0.40;99.90;;;;;;4937659;29;20304;-80
2023/04/05 04:45:36;;;;;;;47.13;19.53;;;-0.30;99.90;;;;;;4920487;29;20222;-77
2023/04/05 04:48:03;;;;;;;40.27;18.77;;;-0.40;99.90;;;;;;4920114;29;20208;-78
2023/04/05 04:50:31;;;;;;;40.80;18.63;;;-0.50;99.90;;;;;;4937634;29;20204;-78
2023/04/05 04:52:59;;;;;;;44.13;18.50;;;-0.40;99.90;;;;;;4920069;29;20297;-80
2023/04/05 04:55:32;;;;;;;43.50;18.97;;;-0.40;99.90;;;;;;4937421;29;20286;-78
2023/04/05 04:57:59;;;;;;;46.27;19.43;;;-0.40;99.90;;;;;;4937217;29;20542;-78
2023/04/05 05:00:26;;;;;;;45.90;19.60;;;-0.40;99.90;;;;;;4936910;29;20738;-78
2023/04/05 05:02:55;;;;;;;42.13;19.27;;;-0.40;99.90;;;;;;4920028;29;20232;-78
2023/04/05 05:05:22;;;;;;;44.70;20.20;;;-0.30;99.90;;;;;;4904687;29;20193;-78
2023/04/05 05:07:51;;;;;;;43.40;18.43;;;-0.20;99.90;;;;;;4937180;29;20624;-79
2023/04/05 05:10:19;;;;;;;44.80;19.10;;;-0.20;99.90;;;;;;4937190;29;20618;-82
2023/04/05 05:12:50;;;;;;;43.60;19.50;;;-0.10;99.90;;;;;;4936835;29;20286;-80
2023/04/05 05:15:18;;;;;;;42.00;19.70;;;0.00;99.90;;;;;;4919912;29;20266;-83
2023/04/05 05:17:46;;;;;;;45.97;19.57;;;0.10;99.90;;;;;;4919011;29;20202;-80
2023/04/05 05:20:12;;;;;;;39.23;19.07;;;0.00;99.90;;;;;;4919761;29;20222;-79
2023/04/05 05:22:39;;;;;;;45.13;19.23;;;0.10;99.90;;;;;;4919744;29;20554;-78
2023/04/05 05:25:07;;;;;;;48.00;19.77;;;0.20;99.90;;;;;;4936769;29;20191;-78
2023/04/05 05:27:34;;;;;;;45.77;20.53;;;0.30;99.90;;;;;;4919370;29;20218;-77
2023/04/05 05:30:01;;;;;;;43.93;19.90;;;0.40;99.90;;;;;;4919672;29;20207;-78
2023/04/05 05:32:29;;;;;;;44.87;20.07;;;0.40;99.90;;;;;;4919531;29;20213;-77
2023/04/05 05:34:56;;;;;;;48.53;19.47;;;0.40;99.90;;;;;;4936328;29;20254;-79
2023/04/05 05:37:30;;;;;;;50.30;20.73;;;0.40;99.90;;;;;;4919336;29;20210;-77
2023/04/05 05:39:57;;;;;;;47.33;20.60;;;0.40;99.90;;;;;;4919493;29;20211;-81
2023/04/05 05:42:25;;;;;;;48.47;19.97;;;0.40;99.90;;;;;;4919381;29;20223;-81
2023/04/05 05:44:52;;;;;;;49.00;21.10;;;0.50;99.90;;;;;;4919821;29;20285;-80
2023/04/05 05:47:19;;;;;;;37.67;18.77;;;0.50;99.90;;;;;;4919487;29;20538;-80
2023/04/05 05:49:48;;;;;;;44.93;19.33;;;0.50;99.90;;;;;;4936198;29;20212;-78
2023/04/05 05:52:15;;;;;;;42.30;18.33;;;0.60;99.90;;;;;;4936543;29;20203;-80
2023/04/05 05:54:42;;;;;;;39.20;19.43;;;0.60;99.90;;;;;;4918816;29;20199;-77
2023/04/05 05:57:09;;;;;;;41.73;19.27;;;0.60;99.90;;;;;;4918795;29;20253;-77
2023/04/05 05:59:36;;;;;;;52.23;20.67;;;0.80;99.90;;;;;;4935880;29;20231;-80
2023/04/05 06:02:03;;;;;;;43.03;19.83;;;0.70;99.90;;;;;;4919109;29;20634;-75
2023/04/05 06:04:30;;;;;;;39.33;18.33;;;0.70;99.90;;;;;;4918902;29;20560;-79
2023/04/05 06:06:57;;;;;;;39.40;18.00;;;0.70;99.90;;;;;;4935753;29;20199;-78
2023/04/05 06:09:25;;;;;;;43.47;20.07;;;0.70;99.90;;;;;;4918826;29;20202;-78
2023/04/05 06:11:52;;;;;;;49.00;21.87;;;0.70;99.90;;;;;;4936039;29;20195;-81
2023/04/05 06:14:24;;;;;;;43.63;21.00;;;0.80;99.90;;;;;;4918918;29;20253;-80
2023/04/05 06:16:52;;;;;;;46.93;19.73;;;0.90;99.90;;;;;;4918878;29;20603;-79
2023/04/05 06:19:19;;;;;;;47.47;20.10;;;0.90;99.90;;;;;;4918756;29;20207;-79
2023/04/05 06:21:46;;;;;;;46.60;19.47;;;0.70;99.90;;;;;;4936263;29;20278;-82
2023/04/05 06:24:14;;;;;;;36.73;17.37;;;0.80;99.90;;;;;;4919539;29;20712;-80
2023/04/05 06:26:41;;;;;;;37.73;18.33;;;0.80;99.90;;;;;;4918419;29;20296;-79
2023/04/05 06:29:08;;;;;;;37.90;18.50;;;0.70;99.90;;;;;;4935599;29;20201;-81
2023/04/05 06:31:35;;;;;;;37.70;16.20;;;0.90;99.90;;;;;;4935915;29;20518;-80
2023/04/05 06:34:02;;;;;;;36.37;15.97;;;0.90;99.90;;;;;;4918354;29;20207;-78
2023/04/05 06:36:33;;;;;;;39.27;18.73;;;0.90;99.90;;;;;;4919304;29;20617;-79
2023/04/05 06:39:00;;;;;;;44.80;19.97;;;1.00;99.90;;;;;;4918471;29;20230;-81
2023/04/05 06:41:27;;;;;;;42.90;19.60;;;1.00;99.90;;;;;;4918344;29;20225;-79
2023/04/05 06:43:55;;;;;;;42.27;19.93;;;1.00;99.90;;;;;;4918258;29;20281;-78
2023/04/05 06:46:22;;;;;;;39.17;18.70;;;0.80;99.90;;;;;;4918331;29;20205;-79
2023/04/05 06:48:51;;;;;;;44.10;19.23;;;0.80;99.90;;;;;;4916534;29;20203;-77
2023/04/05 06:51:18;;;;;;;40.50;18.17;;;0.90;99.90;;;;;;4915804;29;20210;-76
2023/04/05 06:53:46;;;;;;;39.53;18.17;;;0.90;99.90;;;;;;4933068;29;20253;-81
2023/04/05 06:56:13;;;;;;;41.77;17.13;;;1.00;99.90;;;;;;4925669;29;20207;-81
2023/04/05 06:58:40;;;;;;;43.50;18.33;;;0.90;99.90;;;;;;4934808;29;20195;-77
2023/04/05 07:01:08;;;;;;;37.93;17.80;;;1.00;99.90;;;;;;4918161;29;20187;-78
2023/04/05 07:03:35;;;;;;;38.20;18.00;;;1.20;99.90;;;;;;4918119;29;20609;-80
2023/04/05 07:06:03;;;;;;;42.37;18.97;;;1.00;99.90;;;;;;4918246;29;20270;-78
2023/04/05 07:08:31;;;;;;;34.23;18.10;;;1.10;99.90;;;;;;4918075;29;20195;-81
2023/04/05 07:10:58;;;;;;;37.80;17.00;;;1.20;99.90;;;;;;4935159;29;20371;-80
2023/04/05 07:13:25;;;;;;;31.13;15.10;;;1.40;99.90;;;;;;4935219;29;20655;-75
2023/04/05 07:16:02;;;;;;;31.60;14.53;;;1.50;99.90;;;;;;4934982;29;20201;-74
2023/04/05 07:18:30;;;;;;;31.93;14.23;;;1.20;99.90;;;;;;4917858;29;20205;-74
2023/04/05 07:21:02;;;;;;;43.90;19.83;;;1.20;99.90;;;;;;4917800;29;20635;-75
2023/04/05 07:23:30;;;;;;;30.00;13.97;;;1.30;99.90;;;;;;4918053;29;20230;-77
2023/04/05 07:26:03;;;;;;;30.40;14.47;;;1.30;99.90;;;;;;4919315;29;20276;-74
2023/04/05 07:28:34;;;;;;;28.87;13.93;;;1.10;99.90;;;;;;4917737;29;20601;-75
2023/04/05 07:31:06;;;;;;;30.07;13.77;;;1.30;99.90;;;;;;4917872;29;20202;-75
2023/04/05 07:33:33;;;;;;;27.50;13.37;;;1.40;99.90;;;;;;4917933;29;20210;-81
2023/04/05 07:36:02;;;;;;;27.73;13.70;;;1.40;99.90;;;;;;4917863;29;20199;-80
2023/04/05 07:38:29;;;;;;;27.30;12.87;;;1.30;99.90;;;;;;4934870;29;20210;-75
2023/04/05 07:40:57;;;;;;;22.97;11.77;;;1.40;99.90;;;;;;4937021;29;20219;-76
2023/04/05 07:43:24;;;;;;;26.40;12.60;;;1.60;99.90;;;;;;4921478;29;20258;-75
2023/04/05 07:45:55;;;;;;;25.17;11.23;;;1.80;99.90;;;;;;4921395;29;20283;-79
2023/04/05 07:48:22;;;;;;;24.47;11.20;;;1.70;99.90;;;;;;4921108;29;20281;-80
2023/04/05 07:50:51;;;;;;;27.43;12.53;;;1.80;99.90;;;;;;4921218;29;20299;-76
2023/04/05 07:53:18;;;;;;;26.03;12.47;;;1.90;99.90;;;;;;4921338;29;20199;-74
2023/04/05 07:55:46;;;;;;;24.87;11.63;;;2.00;99.90;;;;;;4938148;29;20195;-75
2023/04/05 07:58:13;;;;;;;24.40;10.50;;;1.80;99.90;;;;;;4920937;29;20229;-76
2023/04/05 08:00:40;;;;;;;18.37;8.97;;;1.90;99.90;;;;;;4937975;29;20223;-77
2023/04/05 08:03:07;;;;;;;25.10;10.43;;;1.80;99.90;;;;;;4920838;29;20705;-77
2023/04/05 08:05:34;;;;;;;21.60;10.40;;;1.70;99.90;;;;;;4905418;29;20238;-75
2023/04/05 08:08:01;;;;;;;22.60;10.37;;;1.80;99.90;;;;;;4921019;29;20195;-76
2023/04/05 08:10:27;;;;;;;17.30;8.80;;;1.80;99.90;;;;;;4921087;29;20218;-76
2023/04/05 08:12:54;;;;;;;24.73;10.03;;;1.60;99.90;;;;;;4920926;29;20200;-75
2023/04/05 08:15:21;;;;;;;25.03;11.67;;;1.70;99.90;;;;;;4920749;29;20241;-74
2023/04/05 08:17:48;;;;;;;25.80;12.00;;;1.90;99.90;;;;;;4920964;29;20202;-74
2023/04/05 08:20:15;;;;;;;22.47;10.00;;;2.00;99.90;;;;;;4920403;29;20324;-75
2023/04/05 08:22:42;;;;;;;21.03;10.00;;;1.90;99.90;;;;;;4920558;29;20193;-75
2023/04/05 08:25:09;;;;;;;17.77;9.47;;;1.90;99.90;;;;;;4920786;29;20219;-76
2023/04/05 08:27:36;;;;;;;17.53;8.70;;;1.70;99.90;;;;;;4937601;29;20642;-74
2023/04/05 08:30:03;;;;;;;19.10;9.07;;;1.80;99.90;;;;;;4920630;29;20214;-75
2023/04/05 08:32:31;;;;;;;18.10;7.87;;;1.80;99.90;;;;;;4920992;29;20210;-76
2023/04/05 08:34:58;;;;;;;9.47;5.50;;;1.70;99.90;;;;;;4937753;29;20613;-79
2023/04/05 08:37:26;;;;;;;13.67;6.40;;;1.70;99.90;;;;;;4920591;29;20207;-77
2023/04/05 08:39:53;;;;;;;19.20;7.90;;;1.70;99.90;;;;;;4920242;29;20302;-75
2023/04/05 08:42:35;;;;;;;11.23;5.47;;;1.60;99.90;;;;;;4920368;29;20203;-79
2023/04/05 08:45:09;;;;;;;15.77;7.90;;;1.60;99.90;;;;;;4920328;29;20211;-78
2023/04/05 08:47:37;;;;;;;22.17;9.97;;;1.60;99.90;;;;;;4938114;29;20254;-80
2023/04/05 08:50:05;;;;;;;24.23;10.27;;;1.80;99.90;;;;;;4904183;29;20374;-81
2023/04/05 08:52:33;;;;;;;21.13;9.90;;;1.80;99.90;;;;;;4936237;29;20704;-81
2023/04/05 08:55:01;;;;;;;21.57;10.93;;;1.70;99.90;;;;;;4937599;29;20191;-80
2023/04/05 08:57:31;;;;;;;19.73;9.63;;;1.70;99.90;;;;;;4919791;29;20563;-83
2023/04/05 09:00:00;;;;;;;14.37;7.27;;;1.40;99.90;;;;;;4919905;29;20329;-76
2023/04/05 09:02:27;;;;;;;22.00;10.83;;;1.40;99.90;;;;;;4904800;29;20203;-81
2023/04/05 09:04:55;;;;;;;25.90;11.67;;;1.60;99.90;;;;;;4920001;29;20223;-81
2023/04/05 09:07:24;;;;;;;21.73;10.10;;;1.60;99.90;;;;;;4919916;29;20199;-75
2023/04/05 09:09:58;;;;;;;29.17;10.63;;;1.70;99.90;;;;;;4919925;29;20218;-75
2023/04/05 09:12:25;;;;;;;19.27;10.33;;;1.90;99.90;;;;;;4919608;29;20199;-75
2023/04/05 09:14:54;;;;;;;19.20;10.50;;;2.00;99.90;;;;;;4936991;29;20648;-77
2023/04/05 09:17:22;;;;;;;22.13;10.27;;;2.20;99.90;;;;;;4919737;29;20649;-76
2023/04/05 09:19:49;;;;;;;18.13;9.80;;;2.30;99.90;;;;;;4919485;29;20222;-75
2023/04/05 09:22:19;;;;;;;22.97;9.77;;;2.40;99.90;;;;;;4920510;29;20294;-75
2023/04/05 09:24:46;;;;;;;16.63;9.00;;;2.40;99.90;;;;;;4938865;29;20221;-80
2023/04/05 09:27:17;;;;;;;18.87;9.47;;;2.50;99.90;;;;;;4920426;29;20634;-78
2023/04/05 09:29:49;;;;;;;18.27;8.63;;;2.60;99.90;;;;;;4919843;29;20253;-79
2023/04/05 09:32:19;;;;;;;18.97;9.47;;;2.70;99.90;;;;;;4936980;29;20222;-82
2023/04/05 09:34:46;;;;;;;17.03;8.60;;;2.80;99.90;;;;;;4936580;29;20206;-79
2023/04/05 09:37:18;;;;;;;19.60;8.57;;;2.80;99.90;;;;;;4903923;29;20403;-78
2023/04/05 09:39:50;;;;;;;17.87;8.57;;;2.70;99.90;;;;;;4936533;29;20199;-75
2023/04/05 09:42:21;;;;;;;19.73;9.53;;;2.70;99.90;;;;;;4920256;29;20563;-75
2023/04/05 09:44:51;;;;;;;19.60;9.23;;;2.90;99.90;;;;;;4903798;29;20314;-76
2023/04/05 09:47:21;;;;;;;15.93;8.57;;;2.90;99.90;;;;;;4919101;29;20648;-77
2023/04/05 09:49:47;;;;;;;18.27;8.73;;;3.00;99.90;;;;;;4919554;29;20215;-79
2023/04/05 09:52:34;;;;;;;19.90;9.43;;;3.10;99.90;;;;;;4919521;29;20610;-75
2023/04/05 09:55:03;;;;;;;19.27;9.10;;;3.20;99.90;;;;;;4936781;29;20701;-80
2023/04/05 09:57:36;;;;;;;19.40;9.17;;;3.30;99.90;;;;;;4920394;29;20213;-79
2023/04/05 10:00:05;;;;;;;13.40;7.60;;;3.30;99.90;;;;;;4919335;29;20339;-83
2023/04/05 10:02:36;;;;;;;16.97;7.90;;;3.30;99.90;;;;;;4936472;29;20198;-75
2023/04/05 10:05:12;;;;;;;12.27;8.00;;;3.10;99.90;;;;;;4936079;29;20209;-76
2023/04/05 10:07:41;;;;;;;15.57;7.90;;;3.00;99.90;;;;;;4936773;29;20658;-82
2023/04/05 10:10:11;;;;;;;15.87;7.13;;;2.90;99.90;;;;;;4920664;29;20204;-82
2023/04/05 10:12:40;;;;;;;13.40;7.13;;;3.00;99.90;;;;;;4918828;29;20284;-82
2023/04/05 10:15:09;;;;;;;14.10;7.10;;;3.00;99.90;;;;;;4936152;29;20256;-75
2023/04/05 10:17:54;;;;;;;16.07;7.47;;;3.00;99.90;;;;;;4918679;29;20204;-81
2023/04/05 10:20:22;;;;;;;16.43;8.60;;;3.00;99.90;;;;;;4918805;29;20331;-75
2023/04/05 10:22:58;;;;;;;13.33;7.80;;;3.00;99.90;;;;;;4935623;29;20258;-74
2023/04/05 10:25:52;;;;;;;15.73;8.50;;;3.10;99.90;;;;;;4918456;29;20290;-72
2023/04/05 10:28:35;;;;;;;16.83;8.97;;;3.10;99.90;;;;;;4918242;29;20198;-74
2023/04/05 10:31:12;;;;;;;18.97;9.57;;;3.10;99.90;;;;;;4918563;29;20619;-76
2023/04/05 10:34:23;;;;;;;17.40;8.83;;;3.20;99.90;;;;;;4935730;29;20605;-76
2023/04/05 10:37:02;;;;;;;19.93;9.10;;;3.20;99.90;;;;;;4917098;29;20272;-75
2023/04/05 10:39:34;;;;;;;13.53;7.60;;;3.30;99.90;;;;;;4918170;29;20639;-80
2023/04/05 10:42:09;;;;;;;14.33;7.53;;;3.40;99.90;;;;;;4918301;29;20199;-77
2023/04/05 10:44:38;;;;;;;13.00;7.27;;;3.40;99.90;;;;;;4936393;29;20619;-78
2023/04/05 10:47:10;;;;;;;15.33;6.90;;;3.50;99.90;;;;;;4918446;29;20248;-74
2023/04/05 10:49:47;;;;;;;11.40;5.97;;;3.50;99.90;;;;;;4917883;29;20273;-74
2023/04/05 10:52:16;;;;;;;9.77;5.00;;;3.50;99.90;;;;;;4934622;29;20187;-75
2023/04/05 10:54:44;;;;;;;10.53;5.03;;;3.60;99.90;;;;;;4917839;29;20306;-77
2023/04/05 10:57:12;;;;;;;12.03;5.10;;;3.30;99.90;;;;;;4902219;29;20204;-79
2023/04/05 10:59:42;;;;;;;8.17;5.07;;;3.20;99.90;;;;;;4917691;29;20233;-80
2023/04/05 11:02:10;;;;;;;10.20;4.93;;;3.30;99.90;;;;;;4921426;29;20308;-77
2023/04/05 11:04:42;;;;;;;8.53;4.33;;;3.30;99.90;;;;;;4918341;29;20226;-75
2023/04/05 11:07:13;;;;;;;9.57;4.60;;;3.00;99.90;;;;;;4918184;29;20204;-76
2023/04/05 11:09:52;;;;;;;6.87;4.17;;;3.20;99.90;;;;;;4917834;29;20302;-75
2023/04/05 11:12:19;;;;;;;9.43;4.37;;;3.20;99.90;;;;;;4934955;29;20190;-80
2023/04/05 11:14:46;;;;;;;7.97;4.10;;;3.20;99.90;;;;;;4935410;29;20204;-78
2023/04/05 11:17:27;;;;;;;9.00;4.30;;;3.20;99.90;;;;;;4938659;29;20551;-78
2023/04/05 11:20:03;;;;;;;7.17;4.07;;;3.40;99.90;;;;;;4921811;29;20269;-77
2023/04/05 11:22:30;;;;;;;6.47;4.00;;;3.30;99.90;;;;;;4921885;29;20206;-76
2023/04/05 11:25:01;;;;;;;9.70;3.97;;;3.00;99.90;;;;;;4939554;29;20557;-85
2023/04/05 11:27:35;;;;;;;7.40;4.27;;;2.90;99.90;;;;;;4938991;29;20203;-78
2023/04/05 11:30:04;;;;;;;10.07;3.83;;;3.00;99.90;;;;;;4921667;29;20201;-83
2023/04/05 11:32:44;;;;;;;7.70;4.00;;;3.00;99.90;;;;;;4921910;29;20230;-79
2023/04/05 11:35:21;;;;;;;7.63;4.13;;;3.00;99.90;;;;;;4921253;29;20215;-76
2023/04/05 11:38:21;;;;;;;6.13;3.70;;;3.20;99.90;;;;;;4938108;29;20207;-76
2023/04/05 11:40:49;;;;;;;7.80;4.03;;;3.30;99.90;;;;;;4860763;29;20613;-74
2023/04/05 11:43:16;;;;;;;6.60;4.20;;;3.50;99.90;;;;;;4860892;29;20250;-75
2023/04/05 11:45:45;;;;;;;7.57;4.63;;;3.10;99.90;;;;;;4845450;29;20311;-73
2023/04/05 11:48:14;;;;;;;7.60;4.30;;;3.10;99.90;;;;;;4860901;29;20211;-75
2023/04/05 11:50:41;;;;;;;8.07;4.17;;;3.20;99.90;;;;;;4860950;29;20205;-76
2023/04/05 11:53:17;;;;;;;7.23;4.20;;;3.50;99.90;;;;;;4845192;29;20242;-76
2023/04/05 11:55:46;;;;;;;7.00;4.53;;;3.80;99.90;;;;;;4860716;29;20294;-77
2023/04/05 11:58:32;;;;;;;7.73;4.73;;;4.10;99.90;;;;;;4845007;29;20589;-74
2023/04/05 12:01:02;;;;;;;6.67;4.37;;;4.10;99.90;;;;;;4842071;29;20287;-77
2023/04/05 12:03:29;;;;;;;8.17;4.57;;;4.20;99.90;;;;;;4842291;29;20310;-82
2023/04/05 12:05:59;;;;;;;7.30;4.13;;;4.10;99.90;;;;;;4842352;29;20215;-81
2023/04/05 12:08:51;;;;;;;8.80;4.93;;;4.10;99.90;;;;;;4841876;29;20208;-79
2023/04/05 12:11:26;;;;;;;8.30;4.57;;;4.20;99.90;;;;;;4842062;29;20223;-79
2023/04/05 12:13:57;;;;;;;7.33;3.80;;;4.40;99.90;;;;;;4841906;29;20254;-82
2023/04/05 12:16:25;;;;;;;6.77;4.30;;;4.60;99.90;;;;;;4854631;29;20214;-75
2023/04/05 12:19:02;;;;;;;7.67;4.37;;;4.60;99.90;;;;;;4919433;29;20192;-82
2023/04/05 12:21:29;;;;;;;6.83;4.00;;;4.70;99.90;;;;;;4901599;29;20285;-73
2023/04/05 12:23:57;;;;;;;6.87;4.37;;;4.70;99.90;;;;;;4918660;29;20330;-75
2023/04/05 12:26:25;;;;;;;11.60;4.70;;;4.80;99.90;;;;;;4901301;29;20213;-76
2023/04/05 12:28:53;;;;;;;7.43;4.60;;;4.90;99.90;;;;;;4916952;29;20668;-75
2023/04/05 12:31:42;;;;;;;9.37;4.70;;;4.60;99.90;;;;;;4900784;29;20203;-74
2023/04/05 12:34:11;;;;;;;6.77;4.40;;;4.40;99.90;;;;;;4901373;29;20220;-78
2023/04/05 12:36:43;;;;;;;8.30;4.77;;;4.50;99.90;;;;;;4901077;29;20202;-76
2023/04/05 12:39:10;;;;;;;9.33;4.40;;;4.60;99.90;;;;;;4901755;29;20222;-86
2023/04/05 12:41:37;;;;;;;6.90;4.00;;;4.60;99.90;;;;;;4903236;29;20299;-83
2023/04/05 12:44:11;;;;;;;9.30;4.70;;;4.60;99.90;;;;;;4886329;29;20211;-84
2023/04/05 12:46:46;;;;;;;7.87;4.43;;;4.70;99.90;;;;;;4901314;29;20191;-75
2023/04/05 12:49:17;;;;;;;8.70;4.63;;;4.60;99.90;;;;;;4901571;29;20210;-81
2023/04/05 12:51:46;;;;;;;6.73;4.13;;;4.80;99.90;;;;;;4901352;29;20208;-78
2023/04/05 12:54:14;;;;;;;7.23;4.50;;;4.90;99.90;;;;;;4917903;29;20203;-77
2023/04/05 12:56:49;;;;;;;6.47;4.17;;;5.10;99.90;;;;;;4900798;29;20218;-78